ADDS METAR Data INFO
IDs: Format: Raw Decoded Include TAF

Data at: 0753 UTC 17 Oct 2017

KOSC 170734Z AUTO 22006KT 10SM CLR 04/03 A3013 RMK AO2 T00380029
KOSC 170714Z AUTO 23005KT 10SM CLR 03/02 A3014 RMK AO2 T00280020
KOSC 170653Z AUTO 23004KT 10SM CLR 04/03 A3015 RMK AO2 T00380027
KOSC 170634Z AUTO 22004KT 10SM CLR 04/03 A3015 RMK AO2 T00410030
KOSC 170614Z AUTO 22005KT 10SM CLR 05/03 A3015 RMK AO2 T00450032
KOSC 170553Z AUTO 21005KT 10SM CLR 05/03 A3016 RMK AO2 T00460034 10092 20033
KOSC 170534Z AUTO 22006KT 10SM CLR 04/03 A3015 RMK AO2 T00400025
KOSC 170514Z AUTO 21005KT 10SM CLR 04/03 A3016 RMK AO2 T00440028
KOSC 170453Z AUTO 22005KT 10SM CLR 04/03 A3016 RMK AO2 T00390026
KOSC 170434Z AUTO 24004KT 10SM CLR 04/03 A3016 RMK AO2 T00440030
KOSC 170414Z AUTO 23005KT 10SM CLR 03/02 A3016 RMK AO2 T00330017
KOSC 170353Z AUTO 23005KT 10SM CLR 05/03 A3016 RMK AO2 T00450028
KOSC 170334Z AUTO 25005KT 10SM CLR 04/02 A3016 RMK AO2 T00420016
KOSC 170313Z AUTO 22004KT 10SM CLR 06/03 A3016 RMK AO2 T00600027
KOSC 170254Z AUTO 22005KT 10SM CLR 07/03 A3016 RMK AO2 T00690031
KOSC 170234Z AUTO 22005KT 10SM CLR 07/03 A3016 RMK AO2 T00710031
KOSC 170214Z AUTO 22005KT 10SM CLR 07/03 A3017 RMK AO2 T00740031
KOSC 170153Z AUTO 22005KT 10SM CLR 07/03 A3017 RMK AO2 T00730031
KOSC 170134Z AUTO 22005KT 10SM CLR 08/04 A3017 RMK AO2 T00830035
KOSC 170114Z AUTO 21006KT 10SM CLR 08/03 A3016 RMK AO2 T00790032
KOSC 170053Z AUTO 22008G15KT 10SM CLR 09/03 A3017 RMK AO2 T00900033
KOSC 170034Z AUTO 20008G14KT 10SM CLR 09/03 A3018 RMK AO2 T00850031
KOSC 170013Z AUTO 20008KT 10SM CLR 08/03 A3018 RMK AO2 T00830031
KOSC 162353Z AUTO 20005KT 10SM CLR 09/03 A3019 RMK AO2 T00890031 10127 20086
KOSC 162334Z AUTO 19003KT 10SM CLR 09/03 A3018 RMK AO2 T00860032
KOSC 162313Z AUTO 19004KT 10SM CLR 09/03 A3019 RMK AO2 T00900033
KOSC 162253Z AUTO 19003KT 10SM CLR 10/03 A3019 RMK AO2 T00960031
KOSC 162234Z AUTO 20006KT 10SM CLR 10/03 A3019 RMK AO2 T01030029
KOSC 162213Z AUTO 21008G17KT 10SM CLR 11/03 A3019 RMK AO2 T01100026
KOSC 162154Z AUTO 21009G17KT 10SM CLR 11/03 A3019 RMK AO2 T01110025
KOSC 162134Z AUTO 22009KT 10SM CLR 12/02 A3020 RMK AO2 T01200024
KOSC 162113Z AUTO 22009G18KT 10SM SCT050 12/02 A3020 RMK AO2 T01190020
KOSC 162054Z AUTO 22009G19KT 10SM BKN050 OVC055 13/03 A3020 RMK AO2 T01270025
KOSC 162034Z AUTO 21012G19KT 10SM BKN048 OVC055 12/03 A3020 RMK AO2 T01220025
KOSC 162013Z AUTO 18008G15KT 10SM BKN048 BKN050 12/02 A3020 RMK AO2 T01190024
KOSC 161954Z AUTO 18004G17KT 10SM SCT050 11/02 A3020 RMK AO2 T01110016
KOSC 161934Z AUTO 18005G17KT 10SM OVC050 12/01 A3021 RMK AO2 T01170013
KOSC 161913Z AUTO 20012G18KT 10SM BKN050 12/01 A3021 RMK AO2 T01160007
KOSC 161854Z AUTO 21011G16KT 10SM BKN048 BKN055 12/01 A3022 RMK AO2 T01150008
KOSC 161834Z AUTO 20010G16KT 10SM SCT048 12/00 A3022 RMK AO2 T01221003
KOSC 161813Z AUTO 22010G15KT 10SM CLR 12/M01 A3023 RMK AO2 T01171007
KOSC 161754Z AUTO 22008G15KT 10SM CLR 12/M01 A3023 RMK AO2 T01201011 10121 20016
KOSC 161733Z AUTO 19003G08KT 10SM CLR 12/M01 A3024 RMK AO2 T01171006
KOSC 161714Z AUTO 27005KT 10SM CLR 11/M01 A3025 RMK AO2 T01131006
KOSC 161654Z AUTO 21003G15KT 10SM CLR 11/M01 A3026 RMK AO2 T01091008
KOSC 161633Z AUTO 20010KT 10SM CLR 11/M01 A3027 RMK AO2 T01051008
KOSC 161614Z AUTO 22004G14KT 10SM CLR 10/M01 A3027 RMK AO2 T01031008
KOSC 161554Z AUTO 23004KT 10SM CLR 10/M01 A3027 RMK AO2 T00991011
KOSC 161533Z AUTO 25004KT 10SM CLR 10/M01 A3028 RMK AO2 T00961014
KOSC 161514Z AUTO 23004KT 10SM CLR 09/M02 A3028 RMK AO2 T00901016
KOSC 161454Z AUTO 23003KT 10SM CLR 09/M02 A3028 RMK AO2 T00861020
KOSC 161433Z AUTO 00000KT 10SM CLR 08/M02 A3028 RMK AO2 T00801021
KOSC 161414Z AUTO 00000KT 10SM CLR 08/M01 A3027 RMK AO2 T00751012
KOSC 161354Z AUTO 27008KT 10SM CLR 07/00 A3027 RMK AO2 T00670000
KOSC 161333Z AUTO 27008KT 10SM CLR 05/01 A3028 RMK AO2 T00520014
KOSC 161314Z AUTO 00000KT 10SM CLR 04/02 A3027 RMK AO2 T00390015
KOSC 161254Z AUTO 00000KT 10SM CLR 02/01 A3027 RMK AO2 T00230008
KOSC 161233Z AUTO 00000KT 10SM BKN120 02/01 A3026 RMK AO2 T00180005
KOSC 161214Z AUTO 27004KT 10SM BKN120 02/01 A3026 RMK AO2 T00180006
KOSC 161154Z AUTO 27004KT 10SM SCT120 02/01 A3025 RMK AO2 70034 T00150005 10034 20000
KOSC 161133Z AUTO 28005KT 10SM SCT120 02/01 A3025 RMK AO2 T00150005
KOSC 161114Z AUTO 29004KT 10SM CLR 01/00 A3024 RMK AO2 T00120002
KOSC 161054Z AUTO 27004KT 10SM CLR 01/00 A3023 RMK AO2 T00100001
KOSC 161033Z AUTO 27003KT 10SM CLR 01/00 A3023 RMK AO2 T00070000
KOSC 161014Z AUTO 27005KT 10SM CLR 01/00 A3022 RMK AO2 T00070000
KOSC 160954Z AUTO 28005KT 10SM CLR 00/00 A3021 RMK AO2 T00021003
KOSC 160933Z AUTO 28006KT 10SM CLR 00/00 A3021 RMK AO2 T00001005
KOSC 160914Z AUTO 28004KT 10SM CLR 01/00 A3020 RMK AO2 T00050000
KOSC 160853Z AUTO 27004KT 10SM CLR 01/00 A3019 RMK AO2 T00100002
KOSC 160834Z AUTO 28003KT 10SM CLR 01/00 A3019 RMK AO2 T00051001
KOSC 160814Z AUTO 28004KT 10SM CLR 01/00 A3019 RMK AO2 T00080000
KOSC 160753Z AUTO 29005KT 10SM CLR 01/00 A3018 RMK AO2 T00100000
KOSC 160734Z AUTO 28007KT 10SM CLR 01/00 A3018 RMK AO2 T00130000
KOSC 160714Z AUTO 27008KT 10SM CLR 02/01 A3018 RMK AO2 T00190006
KOSC 160653Z AUTO 28007KT 10SM CLR 02/01 A3018 RMK AO2 T00200005
KOSC 160634Z AUTO 29003KT 10SM CLR 02/01 A3018 RMK AO2 T00240006
KOSC 160614Z AUTO 32004KT 10SM CLR 03/01 A3017 RMK AO2 T00300010
KOSC 160553Z AUTO 32003KT 10SM CLR 04/01 A3017 RMK AO2 T00350007 10085 20035
KOSC 160534Z AUTO 31005KT 10SM CLR 04/01 A3016 RMK AO2 T00400010
KOSC 160514Z AUTO 32006KT 10SM CLR 04/01 A3015 RMK AO2 T00430012
KOSC 160453Z AUTO 31008KT 10SM CLR 05/02 A3015 RMK AO2 T00450015
KOSC 160434Z AUTO 30008KT 10SM CLR 05/02 A3014 RMK AO2 T00450018
KOSC 160414Z AUTO 30008KT 10SM CLR 04/02 A3013 RMK AO2 T00430022
KOSC 160353Z AUTO 29007KT 10SM CLR 04/02 A3013 RMK AO2 T00420021
KOSC 160334Z AUTO 30006KT 10SM CLR 04/02 A3013 RMK AO2 T00420024
KOSC 160314Z AUTO 32006KT 10SM CLR 05/03 A3012 RMK AO2 T00500025
KOSC 160253Z AUTO 31006KT 10SM CLR 05/03 A3012 RMK AO2 T00500025
KOSC 160234Z AUTO 31006KT 10SM SCT037 06/02 A3011 RMK AO2 T00560021
KOSC 160214Z AUTO 32007KT 10SM SCT039 06/02 A3011 RMK AO2 T00600020
KOSC 160153Z AUTO 31008KT 10SM CLR 06/02 A3011 RMK AO2 T00620024
KOSC 160134Z AUTO 32006KT 10SM CLR 07/03 A3009 RMK AO2 T00660028
KOSC 160114Z AUTO 31011G15KT 10SM SCT041 07/03 A3007 RMK AO2 T00710032
KOSC 160053Z AUTO 31010G17KT 10SM SCT024 OVC041 08/04 A3007 RMK AO2 T00780041
KOSC 160034Z AUTO 31010G19KT 10SM SCT024 BKN036 OVC041 08/05 A3006 RMK AO2 T00830045
KOSC 160014Z AUTO 31010G16KT 10SM SCT024 SCT033 OVC043 09/05 A3004 RMK AO2 T00850048
KOSC 152353Z AUTO 30008KT 10SM SCT025 OVC043 09/05 A3002 RMK AO2 T00850050 10125 20082
KOSC 152334Z AUTO 30010KT 10SM SCT025 BKN036 OVC041 08/05 A3001 RMK AO2 T00830050
KOSC 152314Z AUTO 31009G19KT 10SM SCT025 OVC033 09/05 A2999 RMK AO2 T00870047
KOSC 152254Z AUTO 32010G17KT 10SM OVC029 09/05 A2997 RMK AO2 T00870047
KOSC 152234Z AUTO 32013G17KT 10SM OVC027 09/05 A2995 RMK AO2 T00860045
KOSC 152213Z AUTO 32009G16KT 10SM OVC025 09/05 A2994 RMK AO2 T00850047
KOSC 152154Z AUTO 32012G19KT 10SM OVC023 08/05 A2993 RMK AO2 T00830048
KOSC 152134Z AUTO 32013G24KT 10SM OVC023 08/05 A2991 RMK AO2 T00830048
KOSC 152113Z AUTO 32014G19KT 10SM BKN021 OVC025 08/05 A2989 RMK AO2 T00840049
KOSC 152054Z AUTO 32011G22KT 10SM OVC019 08/05 A2987 RMK AO2 T00830053
KOSC 152034Z AUTO 31013G23KT 10SM -DZ OVC021 09/06 A2985 RMK AO2 T00880057
KOSC 152013Z AUTO 31017G23KT 10SM BKN021 OVC027 10/06 A2982 RMK AO2 T00950060
KOSC 151954Z AUTO 31015G21KT 10SM SCT015 BKN021 OVC027 10/07 A2979 RMK AO2 T00970068